Time;durP1;ratioP1;P1;durP2;ratioP2;P2;SDS_P1;SDS_P2;PMS_P1;PMS_P2;Temp;Humidity;BMP_temperature;BMP_pressure;BME280_temperature;BME280_humidity;BME280_pressure;Samples;Min_cycle;Max_cycle;Signal;HPM_P1;HPM_P2
2023/10/24 00:00:58;;;;;;;8.32;6.03;;;;;;;12.60;85.21;99669.44;4144247;28;20041;-65
2023/10/24 00:03:01;;;;;;;11.82;7.30;;;;;;;12.51;85.78;99686.91;4142225;28;20061;-65
2023/10/24 00:05:05;;;;;;;9.90;6.32;;;;;;;12.49;85.84;99680.81;4146379;28;20033;-65
2023/10/24 00:07:08;;;;;;;16.05;7.93;;;;;;;12.51;86.19;99707.75;4146635;28;20423;-65
2023/10/24 00:09:11;;;;;;;7.90;5.82;;;;;;;12.51;86.09;99714.69;4147453;28;20053;-65
2023/10/24 00:11:13;;;;;;;9.43;6.13;;;;;;;12.53;86.08;99712.97;4148987;28;20099;-65
2023/10/24 00:13:18;;;;;;;10.55;5.70;;;;;;;12.70;85.15;99710.22;4141162;28;20088;-65
2023/10/24 00:15:21;;;;;;;10.43;6.80;;;;;;;12.60;85.35;99716.38;4148212;28;20044;-65
2023/10/24 00:17:24;;;;;;;10.27;6.63;;;;;;;12.58;85.27;99704.22;4147913;28;20038;-65
2023/10/24 00:19:27;;;;;;;8.55;5.97;;;;;;;12.64;84.77;99695.50;4143432;28;20038;-65
2023/10/24 00:21:29;;;;;;;10.48;6.22;;;;;;;12.52;85.47;99704.25;4147938;28;20542;-65
2023/10/24 00:23:32;;;;;;;8.15;5.50;;;;;;;12.55;85.29;99704.25;4147990;28;20488;-65
2023/10/24 00:25:35;;;;;;;13.35;5.43;;;;;;;12.51;85.49;99702.56;4148136;28;20061;-65
2023/10/24 00:27:38;;;;;;;11.35;6.57;;;;;;;12.51;85.52;99699.94;4147822;28;20104;-65
2023/10/24 00:29:42;;;;;;;11.02;7.47;;;;;;;12.50;85.54;99695.59;4147263;28;20161;-65
2023/10/24 00:31:45;;;;;;;10.13;6.20;;;;;;;12.51;85.71;99691.22;4146465;28;20065;-65
2023/10/24 00:33:48;;;;;;;9.43;5.53;;;;;;;12.49;85.64;99691.25;4147645;28;20042;-65
2023/10/24 00:35:51;;;;;;;9.20;6.00;;;;;;;12.54;85.49;99705.13;4146209;28;20062;-65
2023/10/24 00:37:53;;;;;;;11.00;6.55;;;;;;;12.48;85.58;99715.56;4145741;28;20164;-65
2023/10/24 00:39:56;;;;;;;9.15;6.38;;;;;;;12.55;85.31;99708.59;4144144;28;20064;-65
2023/10/24 00:41:59;;;;;;;10.45;6.40;;;;;;;12.51;85.08;99710.38;4145740;28;20045;-65
2023/10/24 00:44:02;;;;;;;8.80;6.43;;;;;;;12.49;85.31;99712.09;4146470;28;20077;-65
2023/10/24 00:46:06;;;;;;;9.55;7.10;;;;;;;12.45;85.26;99725.16;4146027;28;20617;-65
2023/10/24 00:48:10;;;;;;;9.77;7.07;;;;;;;12.49;84.99;99716.47;4147464;28;20045;-65
2023/10/24 00:50:13;;;;;;;10.85;6.15;;;;;;;12.48;84.67;99714.72;4147238;28;20037;-65
2023/10/24 00:52:17;;;;;;;8.95;6.75;;;;;;;12.41;84.81;99711.25;4146591;28;20065;-65
2023/10/24 00:54:20;;;;;;;10.00;6.40;;;;;;;12.43;84.84;99704.31;4144783;28;20062;-65
2023/10/24 00:56:24;;;;;;;9.20;6.90;;;;;;;12.37;84.91;99700.00;4146952;28;20034;-67
2023/10/24 00:58:28;;;;;;;10.27;6.50;;;;;;;12.49;84.28;99698.22;4144834;28;20038;-65
2023/10/24 01:00:32;;;;;;;10.80;7.10;;;;;;;12.42;84.34;99694.75;4144570;28;20294;-65
2023/10/24 01:02:36;;;;;;;10.98;7.38;;;;;;;12.49;84.02;99683.44;4142254;28;20424;-65
2023/10/24 01:04:40;;;;;;;10.75;7.45;;;;;;;12.38;84.32;99687.81;4141474;28;20046;-65
2023/10/24 01:06:43;;;;;;;10.82;7.85;;;;;;;12.31;85.33;99680.91;4145694;28;20419;-65
2023/10/24 01:08:46;;;;;;;10.88;8.02;;;;;;;12.37;85.03;99681.75;4139494;28;20476;-65
2023/10/24 01:10:49;;;;;;;13.55;7.38;;;;;;;12.35;85.20;99686.13;4144501;28;20124;-65
2023/10/24 01:12:51;;;;;;;10.20;6.82;;;;;;;12.38;85.06;99669.59;4146424;28;20038;-65
2023/10/24 01:14:54;;;;;;;10.60;6.70;;;;;;;12.34;85.37;99680.94;4140113;28;20481;-65
2023/10/24 01:16:56;;;;;;;11.23;8.75;;;;;;;12.36;85.69;99686.97;4159965;28;20036;-65
2023/10/24 01:19:01;;;;;;;6.82;5.32;;;;;;;12.39;85.41;99686.97;4144183;28;20072;-65
2023/10/24 01:21:04;;;;;;;9.07;6.78;;;;;;;12.43;85.48;99682.63;4145867;28;20125;-65
2023/10/24 01:23:09;;;;;;;10.60;8.43;;;;;;;12.45;85.39;99686.91;4145898;28;20042;-65
2023/10/24 01:25:14;;;;;;;10.88;8.00;;;;;;;12.44;85.30;99699.97;4145031;28;20125;-66
2023/10/24 01:27:19;;;;;;;11.35;6.40;;;;;;;12.43;85.49;99696.50;4143689;28;20082;-65
2023/10/24 01:29:21;;;;;;;;;;;;;;;12.40;85.54;99680.88;4145629;28;20045;-65
2023/10/24 01:31:25;;;;;;;12.77;6.95;;;;;;;12.47;85.46;99674.75;4145414;28;20019;-65
2023/10/24 01:33:27;;;;;;;12.55;8.52;;;;;;;12.51;85.23;99668.66;4144000;28;20580;-65
2023/10/24 01:35:30;;;;;;;12.18;7.88;;;;;;;12.45;85.42;99668.66;4146972;28;20030;-65
2023/10/24 01:37:33;;;;;;;12.18;7.50;;;;;;;12.44;86.16;99673.91;4145303;28;20045;-65
2023/10/24 01:39:37;;;;;;;11.85;7.82;;;;;;;12.44;86.30;99664.34;4146157;28;20415;-65
2023/10/24 01:41:39;;;;;;;12.50;8.73;;;;;;;12.59;85.87;99660.78;4146566;28;20066;-65
2023/10/24 01:43:42;;;;;;;10.68;7.65;;;;;;;12.53;85.61;99664.28;4146998;28;20128;-65
2023/10/24 01:45:45;;;;;;;14.88;7.80;;;;;;;12.54;86.08;99658.19;4145800;28;20409;-65
2023/10/24 01:47:48;;;;;;;12.82;7.22;;;;;;;12.58;85.94;99654.66;4146037;28;20040;-65
2023/10/24 01:49:51;;;;;;;8.98;6.82;;;;;;;12.58;85.94;99652.06;4146891;28;20034;-65
2023/10/24 01:51:54;;;;;;;10.45;6.32;;;;;;;12.58;86.21;99646.84;4144759;28;20045;-65
2023/10/24 01:53:57;;;;;;;11.95;7.82;;;;;;;12.58;86.26;99649.47;4121277;28;20089;-65
2023/10/24 01:56:01;;;;;;;13.05;7.65;;;;;;;12.66;85.92;99636.38;4158789;28;20427;-65
2023/10/24 01:58:03;;;;;;;11.85;8.02;;;;;;;12.66;85.85;99622.47;4146155;28;20505;-65
2023/10/24 02:00:07;;;;;;;10.85;7.07;;;;;;;12.69;85.61;99627.69;4143524;28;20195;-65
2023/10/24 02:02:13;;;;;;;11.77;7.63;;;;;;;12.70;85.50;99635.50;4144053;28;20042;-65
2023/10/24 02:04:16;;;;;;;8.95;7.25;;;;;;;12.67;85.81;99624.19;4144756;28;20044;-65
2023/10/24 02:06:19;;;;;;;8.85;5.55;;;;;;;12.69;86.01;99632.91;4143629;28;20045;-65
2023/10/24 02:08:22;;;;;;;7.57;5.20;;;;;;;12.68;85.89;99631.16;4143867;28;20102;-65
2023/10/24 02:10:26;;;;;;;10.85;8.50;;;;;;;12.72;85.57;99623.28;4127718;28;20053;-65
2023/10/24 02:12:30;;;;;;;10.38;6.95;;;;;;;12.69;85.82;99618.09;4142697;28;20057;-65
2023/10/24 02:14:33;;;;;;;10.68;7.30;;;;;;;12.68;85.78;99625.94;4145520;28;20499;-65
2023/10/24 02:16:36;;;;;;;13.40;7.53;;;;;;;12.70;85.89;99613.75;4143517;28;20073;-65
2023/10/24 02:18:40;;;;;;;11.23;6.40;;;;;;;12.67;85.67;99614.63;4145384;28;20041;-65
2023/10/24 02:20:42;;;;;;;10.02;5.88;;;;;;;12.69;85.93;99612.03;4143595;28;20776;-65
2023/10/24 02:22:48;;;;;;;12.40;6.65;;;;;;;12.73;85.92;99624.16;4141044;28;20065;-65
2023/10/24 02:24:52;;;;;;;12.60;7.32;;;;;;;12.71;85.93;99625.91;4142458;28;20048;-65
2023/10/24 02:26:55;;;;;;;13.55;7.32;;;;;;;12.70;85.42;99635.50;4144921;28;20471;-65
2023/10/24 02:29:01;;;;;;;12.38;6.20;;;;;;;12.75;85.64;99627.63;4145195;28;20117;-65
2023/10/24 02:31:04;;;;;;;12.50;6.63;;;;;;;12.73;85.50;99626.75;4142392;28;20034;-65
2023/10/24 02:33:07;;;;;;;10.25;7.68;;;;;;;12.73;85.80;99634.56;4143377;28;20077;-65
2023/10/24 02:35:10;;;;;;;8.48;6.50;;;;;;;12.78;85.08;99627.59;4125575;28;20046;-65
2023/10/24 02:37:12;;;;;;;10.40;7.60;;;;;;;12.75;85.36;99638.06;4143232;28;20038;-65
2023/10/24 02:39:15;;;;;;;9.30;6.03;;;;;;;12.78;85.02;99637.19;4143981;28;20069;-65
2023/10/24 02:41:18;;;;;;;12.23;7.38;;;;;;;12.75;85.27;99649.34;4144612;28;20040;-65
2023/10/24 02:43:21;;;;;;;9.00;7.50;;;;;;;12.76;84.99;99650.19;4144504;28;20034;-65
2023/10/24 02:45:26;;;;;;;9.13;5.78;;;;;;;12.71;85.25;99649.38;4142886;28;20046;-65
2023/10/24 02:47:28;;;;;;;10.45;7.80;;;;;;;12.74;85.45;99651.97;4144247;28;20042;-65
2023/10/24 02:49:32;;;;;;;8.70;6.60;;;;;;;12.74;85.14;99646.75;4143795;28;20447;-65
2023/10/24 02:51:36;;;;;;;12.60;7.10;;;;;;;12.71;85.46;99646.78;4127455;28;20116;-65
2023/10/24 02:53:38;;;;;;;10.20;7.38;;;;;;;12.66;85.36;99652.03;4144191;28;20041;-65
2023/10/24 02:55:41;;;;;;;8.45;6.38;;;;;;;12.76;85.51;99647.59;4144300;28;20034;-65
2023/10/24 02:57:45;;;;;;;11.93;7.05;;;;;;;12.72;85.50;99656.34;4127365;28;20038;-65
2023/10/24 02:59:48;;;;;;;8.95;5.97;;;;;;;12.68;85.53;99670.28;4156965;28;20423;-65
2023/10/24 03:01:51;;;;;;;10.57;6.68;;;;;;;12.74;85.58;99657.19;4159910;28;20091;-65
2023/10/24 03:03:55;;;;;;;8.93;6.30;;;;;;;12.79;85.73;99650.19;4144364;28;20088;-65
2023/10/24 03:05:58;;;;;;;11.93;7.53;;;;;;;12.74;85.36;99642.38;4142692;28;20463;-65
2023/10/24 03:08:00;;;;;;;10.60;7.93;;;;;;;12.77;85.16;99649.34;4144533;28;20373;-67
2023/10/24 03:10:03;;;;;;;10.95;6.93;;;;;;;12.86;84.76;99646.63;4142790;28;20038;-65
2023/10/24 03:12:09;;;;;;;12.07;8.38;;;;;;;12.78;85.52;99658.91;4144202;28;20037;-65
2023/10/24 03:14:12;;;;;;;10.38;6.90;;;;;;;12.79;85.62;99654.53;4140625;28;20041;-65
2023/10/24 03:16:14;;;;;;;10.88;7.97;;;;;;;12.75;85.51;99669.34;4143085;28;20050;-65
2023/10/24 03:18:19;;;;;;;13.25;8.43;;;;;;;12.78;85.69;99676.31;4141093;28;20045;-65
2023/10/24 03:20:22;;;;;;;14.73;8.27;;;;;;;12.74;85.75;99672.84;4142132;28;20045;-65
2023/10/24 03:22:26;;;;;;;10.35;6.95;;;;;;;12.75;85.86;99674.56;4143176;28;20049;-63
2023/10/24 03:24:29;;;;;;;12.38;9.05;;;;;;;12.77;85.40;99672.81;4144765;28;20396;-63
2023/10/24 03:26:32;;;;;;;13.95;9.68;;;;;;;12.72;85.91;99669.38;4140637;28;20036;-63
2023/10/24 03:28:35;;;;;;;14.00;9.35;;;;;;;12.75;85.80;99666.75;4144942;28;20034;-63
2023/10/24 03:30:39;;;;;;;14.13;9.02;;;;;;;12.77;85.64;99661.53;4142616;28;20038;-63
2023/10/24 03:32:43;;;;;;;12.05;8.35;;;;;;;12.85;84.83;99657.97;4147233;28;20045;-64
2023/10/24 03:34:48;;;;;;;13.10;8.80;;;;;;;12.75;85.30;99657.16;4148184;28;20488;-64
2023/10/24 03:36:50;;;;;;;14.02;8.60;;;;;;;12.66;85.98;99653.75;4147403;28;20038;-64
2023/10/24 03:38:53;;;;;;;14.32;10.50;;;;;;;12.67;85.71;99645.06;4147093;28;20041;-64
2023/10/24 03:40:56;;;;;;;11.90;8.27;;;;;;;12.63;85.72;99645.97;4148063;28;20042;-64
2023/10/24 03:42:59;;;;;;;17.45;10.05;;;;;;;12.61;85.88;99659.00;4145744;28;20487;-64
2023/10/24 03:45:02;;;;;;;11.77;8.65;;;;;;;12.53;86.47;99659.06;4147477;28;20066;-64
2023/10/24 03:47:05;;;;;;;12.60;8.18;;;;;;;12.57;86.53;99659.91;4147686;28;20431;-64
2023/10/24 03:49:08;;;;;;;15.98;9.55;;;;;;;12.56;86.44;99653.84;4145673;28;20122;-64
2023/10/24 03:51:12;;;;;;;15.77;9.50;;;;;;;12.61;86.30;99663.38;4146982;28;20042;-64
2023/10/24 03:53:15;;;;;;;16.20;10.60;;;;;;;12.60;86.16;99659.03;4146255;28;20049;-64
2023/10/24 03:55:18;;;;;;;14.07;9.50;;;;;;;12.55;86.72;99664.28;4147712;28;20496;-64
2023/10/24 03:57:22;;;;;;;14.85;10.05;;;;;;;12.55;86.63;99677.31;4148778;28;20391;-64
2023/10/24 03:59:25;;;;;;;13.57;9.30;;;;;;;12.55;86.51;99674.69;4146842;28;20076;-65
2023/10/24 04:01:28;;;;;;;14.00;9.57;;;;;;;12.54;86.60;99675.56;4145096;28;20129;-64
2023/10/24 04:03:31;;;;;;;14.60;9.75;;;;;;;12.54;86.45;99676.44;4142148;28;20041;-63
2023/10/24 04:05:34;;;;;;;14.55;10.07;;;;;;;12.61;86.13;99681.63;4144759;28;20042;-64
2023/10/24 04:07:38;;;;;;;18.23;10.85;;;;;;;12.56;86.28;99685.13;4162214;28;20053;-66
2023/10/24 04:09:41;;;;;;;19.98;9.93;;;;;;;12.62;86.02;99676.41;4143315;28;20137;-64
2023/10/24 04:11:44;;;;;;;12.43;9.90;;;;;;;12.55;86.14;99688.59;4143826;28;20101;-64
2023/10/24 04:13:47;;;;;;;14.60;10.63;;;;;;;12.58;86.30;99687.72;4145822;28;20445;-63
2023/10/24 04:15:56;;;;;;;13.70;10.52;;;;;;;12.59;86.26;99686.84;4143068;28;20504;-63
2023/10/24 04:17:59;;;;;;;13.88;8.82;;;;;;;12.60;86.29;99695.53;4144093;28;20125;-64
2023/10/24 04:20:03;;;;;;;16.23;9.35;;;;;;;12.71;85.79;99691.13;4146365;28;20042;-64
2023/10/24 04:22:05;;;;;;;16.65;10.80;;;;;;;12.66;85.50;99691.16;4145562;28;20033;-63
2023/10/24 04:24:10;;;;;;;15.25;10.07;;;;;;;12.66;85.26;99677.22;4146797;28;20045;-63
2023/10/24 04:26:13;;;;;;;;;;;;;;;12.53;85.68;99674.72;4146085;28;20096;-63
2023/10/24 04:28:16;;;;;;;16.85;9.90;;;;;;;12.55;85.62;99675.56;4147789;28;19921;-63
2023/10/24 04:30:19;;;;;;;11.60;9.23;;;;;;;12.65;85.35;99658.13;4145389;28;20401;-63
2023/10/24 04:32:22;;;;;;;16.65;10.23;;;;;;;12.54;85.49;99650.38;4143707;28;20034;-63
2023/10/24 04:34:25;;;;;;;16.52;10.50;;;;;;;12.52;85.95;99638.22;4137348;28;20042;-64
2023/10/24 04:36:28;;;;;;;10.82;9.18;;;;;;;12.53;86.09;99645.19;4145516;28;20103;-63
2023/10/24 04:38:31;;;;;;;13.07;9.05;;;;;;;12.63;85.60;99630.31;4145010;28;20518;-64
2023/10/24 04:40:40;;;;;;;19.05;9.68;;;;;;;12.58;85.37;99630.34;4143130;28;20046;-63
2023/10/24 04:42:42;;;;;;;;;;;;;;;12.46;85.85;99625.25;4147881;28;20647;-63
2023/10/24 04:44:45;;;;;;;15.63;11.07;;;;;;;12.46;86.19;99626.09;4147881;28;19927;-63
2023/10/24 04:46:48;;;;;;;12.43;8.57;;;;;;;12.50;86.13;99633.03;4147875;28;20400;-63
2023/10/24 04:48:51;;;;;;;12.25;8.27;;;;;;;12.52;86.24;99625.19;4147044;28;20064;-64
2023/10/24 04:50:54;;;;;;;13.57;9.30;;;;;;;12.61;85.66;99622.50;4146558;28;20133;-64
2023/10/24 04:52:57;;;;;;;14.43;10.80;;;;;;;12.56;86.03;99609.50;4145303;28;20100;-63
2023/10/24 04:55:00;;;;;;;13.80;9.65;;;;;;;12.60;86.05;99601.66;4145228;28;20042;-63
2023/10/24 04:57:04;;;;;;;18.30;11.88;;;;;;;12.61;85.84;99593.81;4143688;28;20128;-63
2023/10/24 04:59:07;;;;;;;14.80;10.38;;;;;;;12.68;85.12;99574.63;4142800;28;20129;-64
2023/10/24 05:01:10;;;;;;;14.35;11.68;;;;;;;12.67;84.85;99572.06;4147954;28;20037;-63
2023/10/24 05:03:13;;;;;;;14.85;11.20;;;;;;;12.68;84.92;99547.72;4147675;28;20049;-64
2023/10/24 05:05:16;;;;;;;15.75;10.75;;;;;;;12.67;85.03;99527.72;4146387;28;20076;-64
2023/10/24 05:07:19;;;;;;;12.27;10.23;;;;;;;12.61;85.42;99525.19;4139398;28;20585;-63
2023/10/24 05:09:21;;;;;;;18.17;12.18;;;;;;;12.63;85.61;99511.25;4147451;28;20061;-64
2023/10/24 05:11:24;;;;;;;12.60;9.48;;;;;;;12.59;85.65;99517.38;4146919;28;20731;-64
2023/10/24 05:13:29;;;;;;;11.30;9.13;;;;;;;12.53;85.94;99553.94;4147249;28;20049;-64
2023/10/24 05:15:33;;;;;;;12.18;7.65;;;;;;;12.51;86.20;99576.53;4147723;28;20050;-64
2023/10/24 05:17:35;;;;;;;11.93;8.75;;;;;;;12.52;86.71;99593.91;4144573;28;20037;-63
2023/10/24 05:19:38;;;;;;;14.90;10.10;;;;;;;12.55;87.05;99594.72;4147174;28;20691;-63
2023/10/24 05:21:45;;;;;;;13.27;8.90;;;;;;;12.62;86.25;99584.28;4149440;28;20193;-64
2023/10/24 05:23:48;;;;;;;11.90;9.95;;;;;;;12.61;86.88;99574.72;4148246;28;20037;-64
2023/10/24 05:25:51;;;;;;;14.30;9.85;;;;;;;12.62;86.37;99574.69;4146946;28;20038;-64
2023/10/24 05:27:54;;;;;;;14.82;9.68;;;;;;;12.55;86.83;99573.88;4146449;28;20034;-63
2023/10/24 05:29:58;;;;;;;11.85;8.55;;;;;;;12.66;86.67;99567.69;4146207;28;20057;-63
2023/10/24 05:32:02;;;;;;;11.57;7.82;;;;;;;12.51;87.03;99572.19;4146250;28;20060;-64
2023/10/24 05:34:05;;;;;;;17.05;10.10;;;;;;;12.53;87.04;99565.22;4147041;28;20045;-64
2023/10/24 05:36:08;;;;;;;11.48;8.57;;;;;;;12.55;87.02;99576.47;4145937;28;20041;-63
2023/10/24 05:38:11;;;;;;;11.15;8.65;;;;;;;12.51;87.34;99579.13;4146602;28;20046;-63
2023/10/24 05:40:13;;;;;;;13.45;9.73;;;;;;;12.55;87.32;99584.31;4147294;28;20117;-64
2023/10/24 05:42:16;;;;;;;11.18;8.02;;;;;;;12.58;87.44;99584.28;4146872;28;20044;-63
2023/10/24 05:44:19;;;;;;;13.45;9.10;;;;;;;12.67;86.79;99572.06;4142779;28;20033;-64
2023/10/24 05:46:24;;;;;;;12.98;10.73;;;;;;;12.72;86.31;99580.72;4146012;28;20045;-64
2023/10/24 05:48:27;;;;;;;17.17;11.30;;;;;;;12.66;86.43;99570.31;4143115;28;20037;-64
2023/10/24 05:50:30;;;;;;;13.18;10.20;;;;;;;12.65;86.83;99582.50;4140308;28;20137;-64
2023/10/24 05:52:33;;;;;;;13.27;10.25;;;;;;;12.65;86.73;99592.06;4146031;28;20064;-64
2023/10/24 05:54:36;;;;;;;13.85;10.48;;;;;;;12.67;87.17;99587.69;4145865;28;20100;-64
2023/10/24 05:56:39;;;;;;;12.98;9.07;;;;;;;12.73;86.57;99585.91;4143355;28;20045;-64
2023/10/24 05:58:42;;;;;;;13.07;8.85;;;;;;;12.72;86.49;99586.78;4145265;28;20545;-63
2023/10/24 06:00:45;;;;;;;15.52;10.63;;;;;;;12.69;86.51;99586.81;4145104;28;20044;-64
2023/10/24 06:02:50;;;;;;;13.68;11.05;;;;;;;12.69;86.46;99594.63;4146328;28;20038;-64
2023/10/24 06:04:52;;;;;;;14.85;10.57;;;;;;;12.67;87.03;99588.53;4139481;28;20042;-64
2023/10/24 06:06:55;;;;;;;13.30;9.70;;;;;;;12.69;86.75;99591.19;4145256;28;20037;-64
2023/10/24 06:08:57;;;;;;;15.15;11.18;;;;;;;12.71;86.65;99584.19;4146115;28;20034;-64
2023/10/24 06:11:01;;;;;;;13.43;10.10;;;;;;;12.72;86.63;99588.53;4147031;28;20103;-64
2023/10/24 06:13:03;;;;;;;13.52;9.32;;;;;;;12.70;86.84;99598.09;4144601;28;20094;-63
2023/10/24 06:15:08;;;;;;;12.35;10.43;;;;;;;12.71;86.97;99605.91;4146342;28;20033;-64
2023/10/24 06:17:16;;;;;;;;;;;;;;;12.64;86.84;99603.38;4146854;28;20566;-64
2023/10/24 06:19:20;;;;;;;11.95;8.18;;;;;;;12.68;87.12;99603.31;4135739;28;20020;-64
2023/10/24 06:21:23;;;;;;;12.90;9.40;;;;;;;12.69;87.05;99596.38;4143256;28;20050;-64
2023/10/24 06:23:28;;;;;;;12.45;9.00;;;;;;;12.72;87.04;99593.75;4146654;28;20038;-64
2023/10/24 06:25:36;;;;;;;12.57;9.45;;;;;;;12.69;86.84;99592.03;4142232;28;20057;-63
2023/10/24 06:27:39;;;;;;;12.52;9.65;;;;;;;12.64;87.19;99600.75;4144137;28;20038;-64
2023/10/24 06:29:42;;;;;;;12.73;8.80;;;;;;;12.63;87.28;99596.41;4145430;28;20045;-64
2023/10/24 06:31:46;;;;;;;15.20;11.10;;;;;;;12.68;87.21;99599.88;4145228;28;20045;-64
2023/10/24 06:33:48;;;;;;;14.68;11.10;;;;;;;12.73;87.36;99593.72;4144722;28;20030;-64
2023/10/24 06:35:52;;;;;;;10.65;9.50;;;;;;;12.75;87.02;99591.13;4146323;28;20440;-64
2023/10/24 06:37:56;;;;;;;12.77;8.88;;;;;;;12.72;87.03;99591.16;4145372;28;20125;-63
2023/10/24 06:40:00;;;;;;;10.13;6.97;;;;;;;12.71;87.38;99599.84;4144830;28;20092;-64
2023/10/24 06:42:02;;;;;;;13.03;8.70;;;;;;;12.72;87.64;99598.97;4145878;28;20121;-63
2023/10/24 06:44:06;;;;;;;15.60;9.40;;;;;;;12.77;87.12;99599.78;4142580;28;20296;-63
2023/10/24 06:46:08;;;;;;;11.10;8.13;;;;;;;12.78;86.75;99596.31;4144977;28;20033;-63
2023/10/24 06:48:11;;;;;;;14.32;9.50;;;;;;;12.80;86.88;99602.34;4144423;28;20065;-64
2023/10/24 06:50:13;;;;;;;22.58;11.40;;;;;;;12.81;87.12;99603.25;4145608;28;20465;-64
2023/10/24 06:52:17;;;;;;;16.73;11.05;;;;;;;12.82;86.94;99608.44;4140962;28;20147;-64
2023/10/24 06:54:20;;;;;;;14.65;9.43;;;;;;;12.81;87.31;99611.06;4145607;28;20060;-64
2023/10/24 06:56:23;;;;;;;14.70;10.00;;;;;;;12.81;87.19;99617.13;4141495;28;20051;-63
2023/10/24 06:58:26;;;;;;;21.60;11.02;;;;;;;12.83;87.30;99622.34;4144195;28;20160;-63
2023/10/24 07:00:28;;;;;;;25.55;13.05;;;;;;;12.84;86.94;99617.09;4145805;28;20041;-64
2023/10/24 07:02:33;;;;;;;22.00;13.07;;;;;;;12.84;86.63;99617.09;4145589;28;20058;-63
2023/10/24 07:04:37;;;;;;;14.02;9.32;;;;;;;12.85;87.06;99618.84;4145607;28;20042;-63
2023/10/24 07:06:39;;;;;;;17.25;10.95;;;;;;;12.84;86.70;99609.28;4144051;28;20439;-63
2023/10/24 07:08:46;;;;;;;21.15;11.88;;;;;;;12.85;86.79;99600.59;4144674;28;20065;-63
2023/10/24 07:10:49;;;;;;;16.20;9.77;;;;;;;12.79;86.86;99592.81;4147979;28;20038;-64
2023/10/24 07:12:52;;;;;;;13.95;10.35;;;;;;;12.80;86.92;99591.91;4148530;28;20499;-63
2023/10/24 07:14:56;;;;;;;17.08;11.73;;;;;;;12.84;87.06;99593.63;4148364;28;20061;-64
2023/10/24 07:16:59;;;;;;;18.20;10.13;;;;;;;12.85;86.64;99592.75;4145450;28;20045;-63
2023/10/24 07:19:01;;;;;;;15.25;11.02;;;;;;;12.84;86.89;99580.59;4148312;28;20092;-63
2023/10/24 07:21:04;;;;;;;18.73;12.00;;;;;;;12.91;86.70;99574.44;4148668;28;20030;-64
2023/10/24 07:23:08;;;;;;;14.40;9.77;;;;;;;12.92;86.50;99577.91;4148918;28;20033;-63
2023/10/24 07:25:12;;;;;;;15.00;11.77;;;;;;;12.89;86.74;99573.59;4148270;28;20048;-63
2023/10/24 07:27:15;;;;;;;14.38;10.20;;;;;;;12.88;86.60;99577.06;4149107;28;20049;-63
2023/10/24 07:29:18;;;;;;;14.45;10.27;;;;;;;12.87;86.61;99574.47;4148567;28;20052;-64
2023/10/24 07:31:21;;;;;;;14.43;9.35;;;;;;;12.87;87.20;99579.69;4147259;28;20038;-64
2023/10/24 07:33:24;;;;;;;11.50;8.35;;;;;;;12.86;87.48;99588.41;4148918;28;20095;-63
2023/10/24 07:35:27;;;;;;;12.80;10.15;;;;;;;12.88;87.14;99587.50;4145168;28;20440;-63
2023/10/24 07:37:35;;;;;;;14.82;11.45;;;;;;;12.90;87.29;99595.31;4145061;28;20034;-63
2023/10/24 07:39:38;;;;;;;16.60;11.43;;;;;;;12.90;86.87;99596.19;4143017;28;20061;-64
2023/10/24 07:41:43;;;;;;;15.50;11.25;;;;;;;12.95;87.22;99600.50;4148749;28;20038;-63
2023/10/24 07:43:46;;;;;;;16.75;12.13;;;;;;;12.97;86.50;99598.75;4147659;28;20042;-63
2023/10/24 07:45:50;;;;;;;15.80;12.27;;;;;;;13.00;86.03;99603.94;4148317;28;20094;-65
2023/10/24 07:47:53;;;;;;;17.40;11.97;;;;;;;12.99;86.33;99599.59;4148882;28;20040;-64
2023/10/24 07:49:56;;;;;;;16.80;11.45;;;;;;;13.09;85.45;99586.41;4146031;28;20292;-63
2023/10/24 07:51:59;;;;;;;17.73;12.82;;;;;;;12.96;85.85;99574.38;4147829;28;20137;-64
2023/10/24 07:54:02;;;;;;;20.35;14.27;;;;;;;13.01;85.84;99580.44;4148743;28;20107;-64
2023/10/24 07:56:05;;;;;;;21.92;14.88;;;;;;;12.96;86.00;99591.78;4148064;28;20038;-64
2023/10/24 07:58:10;;;;;;;16.67;10.07;;;;;;;12.81;86.96;99603.25;4143630;28;20503;-63
2023/10/24 08:00:13;;;;;;;;;;;;;;;12.73;87.28;99617.22;4149429;28;20085;-63
2023/10/24 08:02:16;;;;;;;19.88;13.10;;;;;;;12.79;87.60;99629.34;4144753;28;19972;-63
2023/10/24 08:04:19;;;;;;;22.50;14.23;;;;;;;12.84;87.57;99617.09;4147581;28;20052;-63
2023/10/24 08:06:21;;;;;;;15.75;13.10;;;;;;;12.81;87.60;99618.88;4146919;28;20065;-63
2023/10/24 08:08:24;;;;;;;19.75;13.65;;;;;;;12.89;87.16;99617.94;4148157;28;20041;-63
2023/10/24 08:10:27;;;;;;;16.80;10.73;;;;;;;12.90;87.19;99617.03;4148770;28;20428;-64
2023/10/24 08:12:30;;;;;;;20.73;14.30;;;;;;;12.91;87.48;99618.78;4147842;28;20050;-64
2023/10/24 08:14:37;;;;;;;18.08;12.35;;;;;;;12.90;87.33;99627.47;4148133;28;20074;-63
2023/10/24 08:16:41;;;;;;;16.42;13.35;;;;;;;12.88;87.92;99624.03;4147572;28;20069;-63
2023/10/24 08:18:45;;;;;;;16.00;11.15;;;;;;;12.90;87.68;99631.84;4144001;28;20080;-64
2023/10/24 08:20:48;;;;;;;17.37;12.63;;;;;;;12.87;87.86;99622.28;4148186;28;20564;-63
2023/10/24 08:22:52;;;;;;;15.60;11.93;;;;;;;12.92;88.23;99619.63;4143941;28;20499;-63
2023/10/24 08:24:56;;;;;;;17.60;13.18;;;;;;;12.86;88.32;99620.56;4148226;28;20611;-64
2023/10/24 08:26:59;;;;;;;15.60;11.25;;;;;;;12.90;88.32;99632.69;4148550;28;20128;-63
2023/10/24 08:29:08;;;;;;;19.95;13.90;;;;;;;12.94;88.01;99630.94;4148170;28;20045;-63
2023/10/24 08:31:13;;;;;;;17.88;12.27;;;;;;;12.99;88.29;99630.91;4147864;28;20116;-63
2023/10/24 08:33:17;;;;;;;17.00;14.32;;;;;;;12.97;88.01;99627.44;4147090;28;20038;-63
2023/10/24 08:35:20;;;;;;;;;;;;;;;12.97;87.87;99633.53;4145315;28;20061;-63
2023/10/24 08:37:22;;;;;;;14.77;11.18;;;;;;;12.95;87.79;99626.56;4144191;28;19932;-64
2023/10/24 08:39:25;;;;;;;15.20;11.13;;;;;;;12.93;88.08;99622.22;4146964;28;20045;-63
2023/10/24 08:41:29;;;;;;;15.32;12.45;;;;;;;13.01;88.09;99624.78;4147240;28;20034;-63
2023/10/24 08:43:33;;;;;;;15.32;10.93;;;;;;;13.09;87.71;99622.09;4148231;28;20037;-63
2023/10/24 08:45:37;;;;;;;16.25;10.90;;;;;;;12.98;87.77;99624.81;4148013;28;20042;-63
2023/10/24 08:47:43;;;;;;;13.95;12.07;;;;;;;13.03;87.75;99625.63;4147095;28;20396;-63
2023/10/24 08:49:46;;;;;;;16.48;11.52;;;;;;;13.02;88.21;99625.66;4147698;28;20045;-63
2023/10/24 08:51:49;;;;;;;13.40;9.70;;;;;;;13.00;87.94;99625.66;4148349;28;20581;-63
2023/10/24 08:53:52;;;;;;;17.13;13.75;;;;;;;13.05;88.32;99625.63;4147181;28;20042;-63
2023/10/24 08:55:57;;;;;;;14.32;10.40;;;;;;;13.12;88.14;99627.28;4147419;28;20044;-63
2023/10/24 08:58:02;;;;;;;12.93;10.30;;;;;;;13.08;88.39;99625.59;4141335;28;20404;-63
2023/10/24 09:00:08;;;;;;;14.23;11.30;;;;;;;13.07;88.23;99619.50;4130685;28;20050;-63
2023/10/24 09:02:13;;;;;;;15.35;9.35;;;;;;;13.06;88.49;99629.97;4143948;28;20049;-63
2023/10/24 09:04:17;;;;;;;11.07;9.85;;;;;;;13.13;88.15;99618.59;4147402;28;20528;-63
2023/10/24 09:06:21;;;;;;;;;;;;;;;13.07;88.58;99623.88;4148030;28;20508;-63
2023/10/24 09:08:23;;;;;;;13.10;10.75;;;;;;;13.17;87.87;99609.84;4145141;28;19952;-63
2023/10/24 09:10:26;;;;;;;18.05;13.52;;;;;;;13.19;88.03;99613.31;4148084;28;20072;-63
2023/10/24 09:12:29;;;;;;;15.18;11.50;;;;;;;13.17;87.74;99606.34;4146988;28;20041;-63
2023/10/24 09:14:32;;;;;;;18.02;11.07;;;;;;;13.19;87.63;99608.06;4145571;28;20033;-63
2023/10/24 09:16:55;;;;;;;13.07;9.68;;;;;;;13.17;88.13;99602.03;4146684;28;20034;-63
2023/10/24 09:18:58;;;;;;;16.83;13.00;;;;;;;13.27;87.70;99601.03;4146928;28;20118;-63
2023/10/24 09:21:02;;;;;;;14.73;11.45;;;;;;;13.25;87.47;99592.34;4147356;28;20133;-63
2023/10/24 09:23:06;;;;;;;;;;;;;;;13.10;87.68;99593.38;4146260;28;20046;-63
2023/10/24 09:25:09;;;;;;;12.65;9.55;;;;;;;13.08;88.11;99586.44;4147656;28;19929;-63
2023/10/24 09:27:14;;;;;;;12.15;10.18;;;;;;;13.20;88.30;99588.94;4147139;28;20052;-63
2023/10/24 09:29:17;;;;;;;13.18;10.93;;;;;;;13.09;88.62;99590.78;4144300;28;20077;-63
2023/10/24 09:31:22;;;;;;;14.95;11.10;;;;;;;13.06;88.90;99580.38;4144417;28;20066;-63
2023/10/24 09:33:27;;;;;;;13.57;12.00;;;;;;;13.13;88.62;99582.06;4141922;28;20466;-63